sensor_id;sensor_type;location;lat;lon;timestamp;P1;durP1;ratioP1;P2;durP2;ratioP2
69172;SDS011;56280;49.662;8.408;2023-05-14T00:01:27;10.70;;;9.60;;
69172;SDS011;56280;49.662;8.408;2023-05-14T00:03:52;11.30;;;9.00;;
69172;SDS011;56280;49.662;8.408;2023-05-14T00:06:18;13.13;;;9.60;;
69172;SDS011;56280;49.662;8.408;2023-05-14T00:08:43;10.37;;;8.97;;
69172;SDS011;56280;49.662;8.408;2023-05-14T00:11:08;11.23;;;9.70;;
69172;SDS011;56280;49.662;8.408;2023-05-14T00:13:34;12.20;;;9.63;;
69172;SDS011;56280;49.662;8.408;2023-05-14T00:15:59;14.33;;;9.27;;
69172;SDS011;56280;49.662;8.408;2023-05-14T00:18:25;12.33;;;9.33;;
69172;SDS011;56280;49.662;8.408;2023-05-14T00:20:50;10.20;;;9.03;;
69172;SDS011;56280;49.662;8.408;2023-05-14T00:23:18;10.55;;;9.45;;
69172;SDS011;56280;49.662;8.408;2023-05-14T00:25:44;12.63;;;8.88;;
69172;SDS011;56280;49.662;8.408;2023-05-14T00:28:09;12.57;;;9.40;;
69172;SDS011;56280;49.662;8.408;2023-05-14T00:30:35;10.43;;;8.93;;
69172;SDS011;56280;49.662;8.408;2023-05-14T00:33:00;10.50;;;9.30;;
69172;SDS011;56280;49.662;8.408;2023-05-14T00:35:25;10.82;;;9.23;;
69172;SDS011;56280;49.662;8.408;2023-05-14T00:37:51;11.65;;;9.93;;
69172;SDS011;56280;49.662;8.408;2023-05-14T00:40:16;11.18;;;9.27;;
69172;SDS011;56280;49.662;8.408;2023-05-14T00:42:41;11.25;;;8.90;;
69172;SDS011;56280;49.662;8.408;2023-05-14T00:45:07;10.53;;;9.43;;
69172;SDS011;56280;49.662;8.408;2023-05-14T00:47:32;11.95;;;9.90;;
69172;SDS011;56280;49.662;8.408;2023-05-14T00:50:01;12.57;;;9.65;;
69172;SDS011;56280;49.662;8.408;2023-05-14T00:52:28;12.10;;;10.18;;
69172;SDS011;56280;49.662;8.408;2023-05-14T00:54:53;12.60;;;9.98;;
69172;SDS011;56280;49.662;8.408;2023-05-14T00:57:19;14.23;;;10.23;;
69172;SDS011;56280;49.662;8.408;2023-05-14T00:59:45;12.70;;;10.77;;
69172;SDS011;56280;49.662;8.408;2023-05-14T01:02:11;14.33;;;11.30;;
69172;SDS011;56280;49.662;8.408;2023-05-14T01:04:36;15.43;;;11.10;;
69172;SDS011;56280;49.662;8.408;2023-05-14T01:07:11;13.25;;;11.50;;
69172;SDS011;56280;49.662;8.408;2023-05-14T01:09:52;12.15;;;10.85;;
69172;SDS011;56280;49.662;8.408;2023-05-14T01:15:09;14.18;;;11.32;;
69172;SDS011;56280;49.662;8.408;2023-05-14T01:17:47;13.88;;;10.85;;
69172;SDS011;56280;49.662;8.408;2023-05-14T01:20:17;13.98;;;12.05;;
69172;SDS011;56280;49.662;8.408;2023-05-14T01:22:43;14.53;;;11.57;;
69172;SDS011;56280;49.662;8.408;2023-05-14T01:25:08;13.60;;;11.77;;
69172;SDS011;56280;49.662;8.408;2023-05-14T01:27:41;14.00;;;12.40;;
69172;SDS011;56280;49.662;8.408;2023-05-14T01:30:27;15.00;;;12.40;;
69172;SDS011;56280;49.662;8.408;2023-05-14T01:32:56;15.73;;;12.57;;
69172;SDS011;56280;49.662;8.408;2023-05-14T01:35:27;14.90;;;12.43;;
69172;SDS011;56280;49.662;8.408;2023-05-14T01:37:54;15.15;;;12.70;;
69172;SDS011;56280;49.662;8.408;2023-05-14T01:40:21;14.85;;;12.85;;
69172;SDS011;56280;49.662;8.408;2023-05-14T01:42:48;16.05;;;13.45;;
69172;SDS011;56280;49.662;8.408;2023-05-14T01:45:15;15.35;;;13.02;;
69172;SDS011;56280;49.662;8.408;2023-05-14T01:47:41;16.53;;;13.93;;
69172;SDS011;56280;49.662;8.408;2023-05-14T01:50:07;15.63;;;12.80;;
69172;SDS011;56280;49.662;8.408;2023-05-14T01:52:32;16.33;;;13.50;;
69172;SDS011;56280;49.662;8.408;2023-05-14T01:54:57;15.63;;;13.10;;
69172;SDS011;56280;49.662;8.408;2023-05-14T01:57:23;14.90;;;13.23;;
69172;SDS011;56280;49.662;8.408;2023-05-14T01:59:49;18.33;;;14.10;;
69172;SDS011;56280;49.662;8.408;2023-05-14T02:02:14;15.90;;;13.30;;
69172;SDS011;56280;49.662;8.408;2023-05-14T02:04:40;16.67;;;13.43;;
69172;SDS011;56280;49.662;8.408;2023-05-14T02:07:05;16.03;;;13.60;;
69172;SDS011;56280;49.662;8.408;2023-05-14T02:09:30;15.77;;;13.30;;
69172;SDS011;56280;49.662;8.408;2023-05-14T02:11:55;16.27;;;13.60;;
69172;SDS011;56280;49.662;8.408;2023-05-14T02:14:21;15.80;;;13.30;;
69172;SDS011;56280;49.662;8.408;2023-05-14T02:16:46;18.00;;;12.97;;
69172;SDS011;56280;49.662;8.408;2023-05-14T02:19:11;15.83;;;13.60;;
69172;SDS011;56280;49.662;8.408;2023-05-14T02:21:36;16.23;;;13.73;;
69172;SDS011;56280;49.662;8.408;2023-05-14T02:24:02;18.97;;;14.33;;
69172;SDS011;56280;49.662;8.408;2023-05-14T02:26:27;17.20;;;14.47;;
69172;SDS011;56280;49.662;8.408;2023-05-14T02:28:53;17.13;;;13.80;;
69172;SDS011;56280;49.662;8.408;2023-05-14T02:31:18;17.10;;;14.00;;
69172;SDS011;56280;49.662;8.408;2023-05-14T02:33:43;15.80;;;13.23;;
69172;SDS011;56280;49.662;8.408;2023-05-14T02:36:09;18.30;;;13.73;;
69172;SDS011;56280;49.662;8.408;2023-05-14T02:38:34;17.60;;;13.10;;
69172;SDS011;56280;49.662;8.408;2023-05-14T02:41:00;18.33;;;14.00;;
69172;SDS011;56280;49.662;8.408;2023-05-14T02:43:25;18.60;;;14.00;;
69172;SDS011;56280;49.662;8.408;2023-05-14T02:45:50;18.50;;;16.60;;
69172;SDS011;56280;49.662;8.408;2023-05-14T02:48:15;18.07;;;16.13;;
69172;SDS011;56280;49.662;8.408;2023-05-14T02:50:41;18.70;;;16.67;;
69172;SDS011;56280;49.662;8.408;2023-05-14T02:53:06;27.93;;;25.43;;
69172;SDS011;56280;49.662;8.408;2023-05-14T02:55:32;27.60;;;25.02;;
69172;SDS011;56280;49.662;8.408;2023-05-14T02:57:58;28.27;;;25.63;;
69172;SDS011;56280;49.662;8.408;2023-05-14T03:00:23;29.70;;;27.00;;
69172;SDS011;56280;49.662;8.408;2023-05-14T03:02:48;31.57;;;29.03;;
69172;SDS011;56280;49.662;8.408;2023-05-14T03:05:14;35.70;;;32.63;;
69172;SDS011;56280;49.662;8.408;2023-05-14T03:07:39;33.57;;;30.67;;
69172;SDS011;56280;49.662;8.408;2023-05-14T03:10:04;34.37;;;31.27;;
69172;SDS011;56280;49.662;8.408;2023-05-14T03:12:30;32.42;;;29.52;;
69172;SDS011;56280;49.662;8.408;2023-05-14T03:14:56;31.53;;;28.90;;
69172;SDS011;56280;49.662;8.408;2023-05-14T03:17:21;32.30;;;29.50;;
69172;SDS011;56280;49.662;8.408;2023-05-14T03:19:46;28.40;;;25.83;;
69172;SDS011;56280;49.662;8.408;2023-05-14T03:22:12;32.13;;;29.23;;
69172;SDS011;56280;49.662;8.408;2023-05-14T03:24:38;30.60;;;27.93;;
69172;SDS011;56280;49.662;8.408;2023-05-14T03:27:04;29.52;;;26.90;;
69172;SDS011;56280;49.662;8.408;2023-05-14T03:29:29;28.15;;;25.67;;
69172;SDS011;56280;49.662;8.408;2023-05-14T03:31:55;26.07;;;23.67;;
69172;SDS011;56280;49.662;8.408;2023-05-14T03:34:20;29.90;;;27.00;;
69172;SDS011;56280;49.662;8.408;2023-05-14T03:36:46;30.20;;;27.47;;
69172;SDS011;56280;49.662;8.408;2023-05-14T03:39:11;26.60;;;24.10;;
69172;SDS011;56280;49.662;8.408;2023-05-14T03:41:39;28.05;;;25.35;;
69172;SDS011;56280;49.662;8.408;2023-05-14T03:44:05;24.93;;;22.53;;
69172;SDS011;56280;49.662;8.408;2023-05-14T03:46:30;28.13;;;25.43;;
69172;SDS011;56280;49.662;8.408;2023-05-14T03:48:56;24.60;;;22.00;;
69172;SDS011;56280;49.662;8.408;2023-05-14T03:51:21;21.87;;;19.13;;
69172;SDS011;56280;49.662;8.408;2023-05-14T03:53:46;20.50;;;16.83;;
69172;SDS011;56280;49.662;8.408;2023-05-14T03:56:11;17.97;;;15.37;;
69172;SDS011;56280;49.662;8.408;2023-05-14T03:58:37;17.37;;;14.73;;
69172;SDS011;56280;49.662;8.408;2023-05-14T04:01:02;17.63;;;14.27;;
69172;SDS011;56280;49.662;8.408;2023-05-14T04:03:27;17.87;;;14.37;;
69172;SDS011;56280;49.662;8.408;2023-05-14T04:05:52;19.03;;;15.17;;
69172;SDS011;56280;49.662;8.408;2023-05-14T04:08:18;18.13;;;15.97;;
69172;SDS011;56280;49.662;8.408;2023-05-14T04:10:43;17.87;;;15.20;;
69172;SDS011;56280;49.662;8.408;2023-05-14T04:13:08;18.23;;;15.30;;
69172;SDS011;56280;49.662;8.408;2023-05-14T04:15:33;17.63;;;14.90;;
69172;SDS011;56280;49.662;8.408;2023-05-14T04:18:03;16.83;;;14.97;;
69172;SDS011;56280;49.662;8.408;2023-05-14T04:20:28;16.38;;;14.30;;
69172;SDS011;56280;49.662;8.408;2023-05-14T04:22:54;18.33;;;14.70;;
69172;SDS011;56280;49.662;8.408;2023-05-14T04:25:19;16.52;;;13.27;;
69172;SDS011;56280;49.662;8.408;2023-05-14T04:27:44;16.33;;;13.93;;
69172;SDS011;56280;49.662;8.408;2023-05-14T04:30:10;16.70;;;12.87;;
69172;SDS011;56280;49.662;8.408;2023-05-14T04:32:35;16.42;;;14.52;;
69172;SDS011;56280;49.662;8.408;2023-05-14T04:35:01;15.70;;;13.40;;
69172;SDS011;56280;49.662;8.408;2023-05-14T04:37:28;17.42;;;13.57;;
69172;SDS011;56280;49.662;8.408;2023-05-14T04:39:53;15.17;;;13.10;;
69172;SDS011;56280;49.662;8.408;2023-05-14T04:42:18;16.37;;;13.10;;
69172;SDS011;56280;49.662;8.408;2023-05-14T04:44:44;14.77;;;12.75;;
69172;SDS011;56280;49.662;8.408;2023-05-14T04:47:09;15.90;;;14.20;;
69172;SDS011;56280;49.662;8.408;2023-05-14T04:49:34;16.60;;;13.70;;
69172;SDS011;56280;49.662;8.408;2023-05-14T04:51:59;16.73;;;13.27;;
69172;SDS011;56280;49.662;8.408;2023-05-14T04:54:25;16.42;;;12.65;;
69172;SDS011;56280;49.662;8.408;2023-05-14T04:56:50;13.80;;;12.30;;
69172;SDS011;56280;49.662;8.408;2023-05-14T04:59:15;15.00;;;12.60;;
69172;SDS011;56280;49.662;8.408;2023-05-14T05:01:41;15.97;;;12.70;;
69172;SDS011;56280;49.662;8.408;2023-05-14T05:04:06;16.73;;;13.10;;
69172;SDS011;56280;49.662;8.408;2023-05-14T05:06:31;15.60;;;12.43;;
69172;SDS011;56280;49.662;8.408;2023-05-14T05:08:57;14.93;;;11.53;;
69172;SDS011;56280;49.662;8.408;2023-05-14T05:11:22;14.00;;;11.80;;
69172;SDS011;56280;49.662;8.408;2023-05-14T05:13:47;14.20;;;11.73;;
69172;SDS011;56280;49.662;8.408;2023-05-14T05:16:12;14.40;;;12.73;;
69172;SDS011;56280;49.662;8.408;2023-05-14T05:18:38;17.10;;;12.07;;
69172;SDS011;56280;49.662;8.408;2023-05-14T05:21:04;15.17;;;11.90;;
69172;SDS011;56280;49.662;8.408;2023-05-14T05:23:29;14.20;;;11.65;;
69172;SDS011;56280;49.662;8.408;2023-05-14T05:25:54;15.40;;;11.90;;
69172;SDS011;56280;49.662;8.408;2023-05-14T05:28:20;14.50;;;11.53;;
69172;SDS011;56280;49.662;8.408;2023-05-14T05:30:45;13.33;;;11.30;;
69172;SDS011;56280;49.662;8.408;2023-05-14T05:33:10;13.60;;;11.20;;
69172;SDS011;56280;49.662;8.408;2023-05-14T05:35:36;13.38;;;11.07;;
69172;SDS011;56280;49.662;8.408;2023-05-14T05:38:02;14.13;;;11.40;;
69172;SDS011;56280;49.662;8.408;2023-05-14T05:40:27;13.33;;;11.37;;
69172;SDS011;56280;49.662;8.408;2023-05-14T05:42:52;13.87;;;11.60;;
69172;SDS011;56280;49.662;8.408;2023-05-14T05:45:17;13.47;;;11.10;;
69172;SDS011;56280;49.662;8.408;2023-05-14T05:47:43;13.07;;;11.00;;
69172;SDS011;56280;49.662;8.408;2023-05-14T05:50:08;13.30;;;11.80;;
69172;SDS011;56280;49.662;8.408;2023-05-14T05:52:34;12.82;;;10.13;;
69172;SDS011;56280;49.662;8.408;2023-05-14T05:55:00;12.70;;;10.20;;
69172;SDS011;56280;49.662;8.408;2023-05-14T05:57:25;11.83;;;10.33;;
69172;SDS011;56280;49.662;8.408;2023-05-14T05:59:51;12.87;;;10.37;;
69172;SDS011;56280;49.662;8.408;2023-05-14T06:02:16;13.80;;;11.13;;
69172;SDS011;56280;49.662;8.408;2023-05-14T06:04:41;13.10;;;11.30;;
69172;SDS011;56280;49.662;8.408;2023-05-14T06:07:07;12.80;;;10.43;;
69172;SDS011;56280;49.662;8.408;2023-05-14T06:09:32;12.53;;;10.57;;
69172;SDS011;56280;49.662;8.408;2023-05-14T06:11:57;12.33;;;10.53;;
69172;SDS011;56280;49.662;8.408;2023-05-14T06:14:22;13.13;;;10.83;;
69172;SDS011;56280;49.662;8.408;2023-05-14T06:16:48;13.20;;;10.63;;
69172;SDS011;56280;49.662;8.408;2023-05-14T06:19:13;12.70;;;10.40;;
69172;SDS011;56280;49.662;8.408;2023-05-14T06:21:38;11.50;;;10.23;;
69172;SDS011;56280;49.662;8.408;2023-05-14T06:24:04;13.53;;;10.90;;
69172;SDS011;56280;49.662;8.408;2023-05-14T06:26:29;13.37;;;10.30;;
69172;SDS011;56280;49.662;8.408;2023-05-14T06:28:54;11.70;;;10.00;;
69172;SDS011;56280;49.662;8.408;2023-05-14T06:31:20;12.63;;;10.23;;
69172;SDS011;56280;49.662;8.408;2023-05-14T06:33:45;11.07;;;9.63;;
69172;SDS011;56280;49.662;8.408;2023-05-14T06:36:11;11.83;;;10.10;;
69172;SDS011;56280;49.662;8.408;2023-05-14T06:38:36;11.93;;;9.37;;
69172;SDS011;56280;49.662;8.408;2023-05-14T06:41:01;12.50;;;9.53;;
69172;SDS011;56280;49.662;8.408;2023-05-14T06:43:27;11.33;;;9.20;;
69172;SDS011;56280;49.662;8.408;2023-05-14T06:45:52;13.00;;;9.50;;
69172;SDS011;56280;49.662;8.408;2023-05-14T06:48:18;11.60;;;9.40;;
69172;SDS011;56280;49.662;8.408;2023-05-14T06:50:44;11.07;;;9.30;;
69172;SDS011;56280;49.662;8.408;2023-05-14T06:53:10;10.85;;;9.50;;
69172;SDS011;56280;49.662;8.408;2023-05-14T06:55:35;11.67;;;9.33;;
69172;SDS011;56280;49.662;8.408;2023-05-14T06:58:00;10.87;;;8.20;;
69172;SDS011;56280;49.662;8.408;2023-05-14T07:00:26;10.40;;;8.30;;
69172;SDS011;56280;49.662;8.408;2023-05-14T07:02:51;10.73;;;8.60;;
69172;SDS011;56280;49.662;8.408;2023-05-14T07:05:17;10.17;;;8.50;;
69172;SDS011;56280;49.662;8.408;2023-05-14T07:07:42;9.30;;;7.33;;
69172;SDS011;56280;49.662;8.408;2023-05-14T07:10:07;8.83;;;7.27;;
69172;SDS011;56280;49.662;8.408;2023-05-14T07:12:33;8.03;;;7.13;;
69172;SDS011;56280;49.662;8.408;2023-05-14T07:14:58;8.50;;;7.03;;
69172;SDS011;56280;49.662;8.408;2023-05-14T07:17:24;8.37;;;6.83;;
69172;SDS011;56280;49.662;8.408;2023-05-14T07:19:49;10.17;;;7.50;;
69172;SDS011;56280;49.662;8.408;2023-05-14T07:22:15;9.13;;;7.47;;
69172;SDS011;56280;49.662;8.408;2023-05-14T07:24:40;7.90;;;7.00;;
69172;SDS011;56280;49.662;8.408;2023-05-14T07:27:05;9.27;;;7.33;;
69172;SDS011;56280;49.662;8.408;2023-05-14T07:29:32;7.43;;;6.45;;
69172;SDS011;56280;49.662;8.408;2023-05-14T07:31:59;8.03;;;6.73;;
69172;SDS011;56280;49.662;8.408;2023-05-14T07:34:25;8.65;;;6.97;;
69172;SDS011;56280;49.662;8.408;2023-05-14T07:36:50;9.93;;;7.00;;
69172;SDS011;56280;49.662;8.408;2023-05-14T07:39:15;8.00;;;6.67;;
69172;SDS011;56280;49.662;8.408;2023-05-14T07:41:41;7.43;;;6.23;;
69172;SDS011;56280;49.662;8.408;2023-05-14T07:44:06;8.13;;;6.17;;
69172;SDS011;56280;49.662;8.408;2023-05-14T07:46:31;7.77;;;6.33;;
69172;SDS011;56280;49.662;8.408;2023-05-14T07:48:56;8.20;;;6.57;;
69172;SDS011;56280;49.662;8.408;2023-05-14T07:51:22;8.47;;;6.93;;
69172;SDS011;56280;49.662;8.408;2023-05-14T07:53:47;8.77;;;7.37;;
69172;SDS011;56280;49.662;8.408;2023-05-14T07:56:12;9.20;;;7.47;;
69172;SDS011;56280;49.662;8.408;2023-05-14T07:58:38;8.57;;;6.93;;
69172;SDS011;56280;49.662;8.408;2023-05-14T08:01:03;8.17;;;7.27;;
69172;SDS011;56280;49.662;8.408;2023-05-14T08:03:31;8.15;;;7.13;;
69172;SDS011;56280;49.662;8.408;2023-05-14T08:05:56;8.60;;;7.53;;
69172;SDS011;56280;49.662;8.408;2023-05-14T08:08:21;9.40;;;6.93;;
69172;SDS011;56280;49.662;8.408;2023-05-14T08:10:47;7.57;;;6.07;;
69172;SDS011;56280;49.662;8.408;2023-05-14T08:13:12;8.20;;;6.53;;
69172;SDS011;56280;49.662;8.408;2023-05-14T08:15:37;8.20;;;6.37;;
69172;SDS011;56280;49.662;8.408;2023-05-14T08:18:03;8.83;;;6.60;;
69172;SDS011;56280;49.662;8.408;2023-05-14T08:20:28;7.13;;;6.17;;
69172;SDS011;56280;49.662;8.408;2023-05-14T08:22:55;7.93;;;6.05;;
69172;SDS011;56280;49.662;8.408;2023-05-14T08:25:21;8.38;;;6.28;;
69172;SDS011;56280;49.662;8.408;2023-05-14T08:27:47;7.93;;;6.80;;
69172;SDS011;56280;49.662;8.408;2023-05-14T08:30:12;7.77;;;6.57;;
69172;SDS011;56280;49.662;8.408;2023-05-14T08:32:37;8.33;;;7.00;;
69172;SDS011;56280;49.662;8.408;2023-05-14T08:35:03;8.40;;;7.10;;
69172;SDS011;56280;49.662;8.408;2023-05-14T08:37:28;7.70;;;6.85;;
69172;SDS011;56280;49.662;8.408;2023-05-14T08:39:54;7.67;;;6.40;;
69172;SDS011;56280;49.662;8.408;2023-05-14T08:42:20;7.50;;;5.87;;
69172;SDS011;56280;49.662;8.408;2023-05-14T08:44:49;7.88;;;6.57;;
69172;SDS011;56280;49.662;8.408;2023-05-14T08:47:17;8.97;;;6.40;;
69172;SDS011;56280;49.662;8.408;2023-05-14T08:49:46;8.98;;;6.65;;
69172;SDS011;56280;49.662;8.408;2023-05-14T08:52:16;8.13;;;6.43;;
69172;SDS011;56280;49.662;8.408;2023-05-14T08:54:42;8.68;;;6.57;;
69172;SDS011;56280;49.662;8.408;2023-05-14T08:57:09;8.10;;;6.30;;
69172;SDS011;56280;49.662;8.408;2023-05-14T08:59:35;8.57;;;6.82;;
69172;SDS011;56280;49.662;8.408;2023-05-14T09:02:01;8.80;;;7.03;;
69172;SDS011;56280;49.662;8.408;2023-05-14T09:04:30;8.05;;;6.85;;
69172;SDS011;56280;49.662;8.408;2023-05-14T09:06:56;7.93;;;6.70;;
69172;SDS011;56280;49.662;8.408;2023-05-14T09:09:25;8.57;;;6.68;;
69172;SDS011;56280;49.662;8.408;2023-05-14T09:11:51;7.75;;;6.55;;
69172;SDS011;56280;49.662;8.408;2023-05-14T09:14:18;7.88;;;6.47;;
69172;SDS011;56280;49.662;8.408;2023-05-14T09:16:44;7.90;;;6.97;;
69172;SDS011;56280;49.662;8.408;2023-05-14T09:19:10;7.45;;;6.65;;
69172;SDS011;56280;49.662;8.408;2023-05-14T09:21:37;7.90;;;6.47;;
69172;SDS011;56280;49.662;8.408;2023-05-14T09:24:02;7.93;;;6.80;;
69172;SDS011;56280;49.662;8.408;2023-05-14T09:26:30;7.03;;;6.00;;
69172;SDS011;56280;49.662;8.408;2023-05-14T09:28:56;7.75;;;6.20;;
69172;SDS011;56280;49.662;8.408;2023-05-14T09:31:29;7.78;;;6.07;;
69172;SDS011;56280;49.662;8.408;2023-05-14T09:33:58;7.45;;;6.13;;
69172;SDS011;56280;49.662;8.408;2023-05-14T09:36:24;7.30;;;6.10;;
69172;SDS011;56280;49.662;8.408;2023-05-14T09:38:51;7.80;;;5.82;;
69172;SDS011;56280;49.662;8.408;2023-05-14T09:41:17;7.60;;;6.03;;
69172;SDS011;56280;49.662;8.408;2023-05-14T09:43:43;7.13;;;5.80;;
69172;SDS011;56280;49.662;8.408;2023-05-14T09:46:08;6.73;;;5.73;;
69172;SDS011;56280;49.662;8.408;2023-05-14T09:48:33;8.57;;;6.23;;
69172;SDS011;56280;49.662;8.408;2023-05-14T09:50:59;8.68;;;6.05;;
69172;SDS011;56280;49.662;8.408;2023-05-14T09:53:24;7.57;;;6.00;;
69172;SDS011;56280;49.662;8.408;2023-05-14T09:55:52;7.68;;;5.90;;
69172;SDS011;56280;49.662;8.408;2023-05-14T09:58:17;7.17;;;5.80;;
69172;SDS011;56280;49.662;8.408;2023-05-14T10:00:44;6.70;;;5.63;;
69172;SDS011;56280;49.662;8.408;2023-05-14T10:03:12;7.72;;;6.10;;
69172;SDS011;56280;49.662;8.408;2023-05-14T10:05:39;7.88;;;6.10;;
69172;SDS011;56280;49.662;8.408;2023-05-14T10:08:19;8.65;;;6.30;;
69172;SDS011;56280;49.662;8.408;2023-05-14T10:10:49;8.30;;;6.10;;
69172;SDS011;56280;49.662;8.408;2023-05-14T10:13:19;7.65;;;5.90;;
69172;SDS011;56280;49.662;8.408;2023-05-14T10:15:49;7.70;;;6.03;;
69172;SDS011;56280;49.662;8.408;2023-05-14T10:18:18;8.85;;;5.70;;
69172;SDS011;56280;49.662;8.408;2023-05-14T10:20:52;7.50;;;6.13;;
69172;SDS011;56280;49.662;8.408;2023-05-14T10:23:24;7.60;;;6.07;;
69172;SDS011;56280;49.662;8.408;2023-05-14T10:25:50;9.90;;;6.25;;
69172;SDS011;56280;49.662;8.408;2023-05-14T10:28:18;10.05;;;6.28;;
69172;SDS011;56280;49.662;8.408;2023-05-14T10:30:44;7.28;;;5.75;;
69172;SDS011;56280;49.662;8.408;2023-05-14T10:33:11;6.95;;;5.68;;
69172;SDS011;56280;49.662;8.408;2023-05-14T10:38:27;6.23;;;5.63;;
69172;SDS011;56280;49.662;8.408;2023-05-14T10:41:12;6.82;;;5.28;;
69172;SDS011;56280;49.662;8.408;2023-05-14T10:43:42;7.43;;;5.57;;
69172;SDS011;56280;49.662;8.408;2023-05-14T10:46:08;6.82;;;5.75;;
69172;SDS011;56280;49.662;8.408;2023-05-14T10:48:38;7.03;;;5.28;;
69172;SDS011;56280;49.662;8.408;2023-05-14T10:51:06;7.80;;;5.70;;
69172;SDS011;56280;49.662;8.408;2023-05-14T10:53:34;6.87;;;5.47;;
69172;SDS011;56280;49.662;8.408;2023-05-14T10:56:02;7.13;;;5.43;;
69172;SDS011;56280;49.662;8.408;2023-05-14T11:01:29;7.40;;;5.43;;
69172;SDS011;56280;49.662;8.408;2023-05-14T11:03:56;6.57;;;5.30;;
69172;SDS011;56280;49.662;8.408;2023-05-14T11:06:22;7.65;;;5.78;;
69172;SDS011;56280;49.662;8.408;2023-05-14T11:08:49;7.82;;;5.18;;
69172;SDS011;56280;49.662;8.408;2023-05-14T11:11:15;8.03;;;5.77;;
69172;SDS011;56280;49.662;8.408;2023-05-14T11:13:43;6.37;;;5.10;;
69172;SDS011;56280;49.662;8.408;2023-05-14T11:16:08;7.97;;;5.30;;
69172;SDS011;56280;49.662;8.408;2023-05-14T11:18:40;7.30;;;5.30;;
69172;SDS011;56280;49.662;8.408;2023-05-14T11:21:06;7.25;;;5.20;;
69172;SDS011;56280;49.662;8.408;2023-05-14T11:23:45;7.03;;;5.22;;
69172;SDS011;56280;49.662;8.408;2023-05-14T11:26:16;7.45;;;5.68;;
69172;SDS011;56280;49.662;8.408;2023-05-14T11:28:42;7.60;;;5.13;;
69172;SDS011;56280;49.662;8.408;2023-05-14T11:31:08;6.63;;;5.33;;
69172;SDS011;56280;49.662;8.408;2023-05-14T11:33:34;6.97;;;5.55;;
69172;SDS011;56280;49.662;8.408;2023-05-14T11:35:59;6.33;;;5.30;;
69172;SDS011;56280;49.662;8.408;2023-05-14T11:38:25;5.90;;;5.10;;
69172;SDS011;56280;49.662;8.408;2023-05-14T11:40:53;6.73;;;5.17;;
69172;SDS011;56280;49.662;8.408;2023-05-14T11:43:20;7.85;;;5.57;;
69172;SDS011;56280;49.662;8.408;2023-05-14T11:45:49;6.80;;;5.07;;
69172;SDS011;56280;49.662;8.408;2023-05-14T11:48:16;5.95;;;4.70;;
69172;SDS011;56280;49.662;8.408;2023-05-14T11:50:43;6.03;;;5.18;;
69172;SDS011;56280;49.662;8.408;2023-05-14T11:53:14;6.80;;;5.20;;
69172;SDS011;56280;49.662;8.408;2023-05-14T11:55:40;6.05;;;4.38;;
69172;SDS011;56280;49.662;8.408;2023-05-14T11:58:06;7.45;;;4.50;;
69172;SDS011;56280;49.662;8.408;2023-05-14T12:00:31;5.78;;;4.80;;
69172;SDS011;56280;49.662;8.408;2023-05-14T12:02:58;6.32;;;4.70;;
69172;SDS011;56280;49.662;8.408;2023-05-14T12:05:23;5.80;;;4.60;;
69172;SDS011;56280;49.662;8.408;2023-05-14T12:07:49;5.73;;;4.60;;
69172;SDS011;56280;49.662;8.408;2023-05-14T12:10:14;5.30;;;4.37;;
69172;SDS011;56280;49.662;8.408;2023-05-14T12:12:39;6.13;;;4.87;;
69172;SDS011;56280;49.662;8.408;2023-05-14T12:15:11;5.83;;;4.50;;
69172;SDS011;56280;49.662;8.408;2023-05-14T12:17:37;5.93;;;4.20;;
69172;SDS011;56280;49.662;8.408;2023-05-14T12:20:03;5.70;;;4.35;;
69172;SDS011;56280;49.662;8.408;2023-05-14T12:22:32;5.73;;;4.63;;
69172;SDS011;56280;49.662;8.408;2023-05-14T12:24:58;5.45;;;4.13;;
69172;SDS011;56280;49.662;8.408;2023-05-14T12:27:24;5.13;;;4.30;;
69172;SDS011;56280;49.662;8.408;2023-05-14T12:29:58;5.57;;;4.07;;
69172;SDS011;56280;49.662;8.408;2023-05-14T12:32:24;6.67;;;4.40;;
69172;SDS011;56280;49.662;8.408;2023-05-14T12:34:50;5.75;;;4.00;;
69172;SDS011;56280;49.662;8.408;2023-05-14T12:37:15;5.87;;;4.20;;
69172;SDS011;56280;49.662;8.408;2023-05-14T12:39:42;5.57;;;4.10;;
69172;SDS011;56280;49.662;8.408;2023-05-14T12:42:07;5.40;;;4.00;;
69172;SDS011;56280;49.662;8.408;2023-05-14T12:44:33;5.03;;;3.93;;
69172;SDS011;56280;49.662;8.408;2023-05-14T12:46:58;5.23;;;4.03;;
69172;SDS011;56280;49.662;8.408;2023-05-14T12:49:23;4.83;;;3.93;;
69172;SDS011;56280;49.662;8.408;2023-05-14T12:51:49;5.25;;;4.00;;
69172;SDS011;56280;49.662;8.408;2023-05-14T12:54:14;5.70;;;3.70;;
69172;SDS011;56280;49.662;8.408;2023-05-14T12:56:40;5.40;;;4.00;;
69172;SDS011;56280;49.662;8.408;2023-05-14T12:59:05;5.10;;;3.87;;
69172;SDS011;56280;49.662;8.408;2023-05-14T13:01:30;5.27;;;3.90;;
69172;SDS011;56280;49.662;8.408;2023-05-14T13:03:56;5.30;;;3.80;;
69172;SDS011;56280;49.662;8.408;2023-05-14T13:06:22;4.72;;;3.88;;
69172;SDS011;56280;49.662;8.408;2023-05-14T13:08:47;4.87;;;3.63;;
69172;SDS011;56280;49.662;8.408;2023-05-14T13:11:13;6.00;;;3.60;;
69172;SDS011;56280;49.662;8.408;2023-05-14T13:13:38;4.83;;;3.47;;
69172;SDS011;56280;49.662;8.408;2023-05-14T13:16:04;5.57;;;3.40;;
69172;SDS011;56280;49.662;8.408;2023-05-14T13:18:29;4.80;;;3.40;;
69172;SDS011;56280;49.662;8.408;2023-05-14T13:20:55;4.70;;;3.20;;
69172;SDS011;56280;49.662;8.408;2023-05-14T13:23:20;5.13;;;3.60;;
69172;SDS011;56280;49.662;8.408;2023-05-14T13:25:45;5.03;;;3.40;;
69172;SDS011;56280;49.662;8.408;2023-05-14T13:28:10;5.20;;;3.83;;
69172;SDS011;56280;49.662;8.408;2023-05-14T13:30:36;5.00;;;3.57;;
69172;SDS011;56280;49.662;8.408;2023-05-14T13:33:01;4.97;;;3.40;;
69172;SDS011;56280;49.662;8.408;2023-05-14T13:35:27;5.10;;;3.77;;
69172;SDS011;56280;49.662;8.408;2023-05-14T13:37:52;4.93;;;3.90;;
69172;SDS011;56280;49.662;8.408;2023-05-14T13:40:17;4.83;;;3.90;;
69172;SDS011;56280;49.662;8.408;2023-05-14T13:42:43;6.00;;;3.53;;
69172;SDS011;56280;49.662;8.408;2023-05-14T13:45:08;5.63;;;3.37;;
69172;SDS011;56280;49.662;8.408;2023-05-14T13:47:34;4.70;;;3.40;;
69172;SDS011;56280;49.662;8.408;2023-05-14T13:49:59;5.20;;;3.40;;
69172;SDS011;56280;49.662;8.408;2023-05-14T13:52:24;4.80;;;3.70;;
69172;SDS011;56280;49.662;8.408;2023-05-14T13:54:50;6.15;;;3.67;;
69172;SDS011;56280;49.662;8.408;2023-05-14T13:57:16;4.40;;;3.80;;
69172;SDS011;56280;49.662;8.408;2023-05-14T13:59:42;5.43;;;3.80;;
69172;SDS011;56280;49.662;8.408;2023-05-14T14:02:07;5.17;;;3.63;;
69172;SDS011;56280;49.662;8.408;2023-05-14T14:04:32;6.43;;;3.97;;
69172;SDS011;56280;49.662;8.408;2023-05-14T14:06:58;6.17;;;3.80;;
69172;SDS011;56280;49.662;8.408;2023-05-14T14:09:23;4.63;;;3.63;;
69172;SDS011;56280;49.662;8.408;2023-05-14T14:11:49;5.77;;;3.43;;
69172;SDS011;56280;49.662;8.408;2023-05-14T14:14:15;5.28;;;3.78;;
69172;SDS011;56280;49.662;8.408;2023-05-14T14:16:41;4.85;;;3.65;;
69172;SDS011;56280;49.662;8.408;2023-05-14T14:19:07;4.63;;;3.67;;
69172;SDS011;56280;49.662;8.408;2023-05-14T14:21:32;4.50;;;3.73;;
69172;SDS011;56280;49.662;8.408;2023-05-14T14:23:59;4.63;;;3.72;;
69172;SDS011;56280;49.662;8.408;2023-05-14T14:26:25;5.23;;;3.77;;
69172;SDS011;56280;49.662;8.408;2023-05-14T14:28:51;4.95;;;3.58;;
69172;SDS011;56280;49.662;8.408;2023-05-14T14:31:17;6.63;;;3.75;;
69172;SDS011;56280;49.662;8.408;2023-05-14T14:33:42;5.17;;;3.80;;
69172;SDS011;56280;49.662;8.408;2023-05-14T14:36:07;5.40;;;3.60;;
69172;SDS011;56280;49.662;8.408;2023-05-14T14:38:33;5.20;;;3.83;;